createdAt,value
2018-06-03T00:00:06.151Z,18.60
2018-06-03T00:02:34.916Z,18.60
2018-06-03T00:05:03.766Z,18.60
2018-06-03T00:07:32.679Z,18.50
2018-06-03T00:10:01.391Z,18.50
2018-06-03T00:12:30.205Z,18.40
2018-06-03T00:14:59.140Z,18.40
2018-06-03T00:17:27.951Z,18.40
2018-06-03T00:19:56.924Z,18.30
2018-06-03T00:22:31.685Z,18.30
2018-06-03T00:25:01.485Z,18.30
2018-06-03T00:27:30.248Z,18.30
2018-06-03T00:29:58.802Z,18.20
2018-06-03T00:32:27.631Z,18.20
2018-06-03T00:34:57.456Z,18.20
2018-06-03T00:37:26.219Z,18.20
2018-06-03T00:39:54.838Z,18.10
2018-06-03T00:42:23.551Z,18.10
2018-06-03T00:44:52.382Z,18.10
2018-06-03T00:47:21.135Z,18.20
2018-06-03T00:49:51.561Z,18.10
2018-06-03T00:52:20.398Z,18.10
2018-06-03T00:54:49.182Z,18.10
2018-06-03T00:57:18.089Z,18.10
2018-06-03T00:59:47.999Z,18.10
2018-06-03T01:02:16.807Z,18.10
2018-06-03T01:04:45.522Z,18.10
2018-06-03T01:07:14.660Z,18.10
2018-06-03T01:09:43.431Z,18.10
2018-06-03T01:12:12.162Z,18.10
2018-06-03T01:14:40.983Z,18.10
2018-06-03T01:17:09.794Z,18.10
2018-06-03T01:19:38.595Z,18.10
2018-06-03T01:22:07.328Z,18.00
2018-06-03T01:24:36.293Z,18.00
2018-06-03T01:27:05.033Z,18.00
2018-06-03T01:29:33.632Z,18.00
2018-06-03T01:32:02.624Z,18.00
2018-06-03T01:34:31.515Z,18.00
2018-06-03T01:37:00.097Z,18.00
2018-06-03T01:39:28.753Z,18.00
2018-06-03T01:41:57.542Z,18.00
2018-06-03T01:46:54.711Z,18.10
2018-06-03T01:51:51.685Z,18.10
2018-06-03T01:54:20.567Z,18.20
2018-06-03T01:56:49.478Z,18.20
2018-06-03T01:59:18.476Z,18.20
2018-06-03T02:01:47.441Z,18.30
2018-06-03T02:04:16.530Z,18.20
2018-06-03T02:06:45.475Z,18.30
2018-06-03T02:09:14.117Z,18.30
2018-06-03T02:11:43.015Z,18.30
2018-06-03T02:14:12.117Z,18.30
2018-06-03T02:16:40.983Z,18.30
2018-06-03T02:19:09.894Z,18.30
2018-06-03T02:21:38.611Z,18.20
2018-06-03T02:24:07.441Z,18.20
2018-06-03T02:26:36.220Z,18.20
2018-06-03T02:29:04.969Z,18.20
2018-06-03T02:31:33.984Z,18.20
2018-06-03T02:34:02.599Z,18.20
2018-06-03T02:36:31.586Z,18.20
2018-06-03T02:39:00.173Z,18.20
2018-06-03T02:41:29.103Z,18.20
2018-06-03T02:43:57.788Z,18.10
2018-06-03T02:46:26.921Z,18.10
2018-06-03T02:48:56.690Z,18.10
2018-06-03T02:51:25.705Z,18.10
2018-06-03T02:53:54.499Z,18.10
2018-06-03T02:56:23.363Z,18.10
2018-06-03T02:58:52.151Z,18.00
2018-06-03T03:01:21.393Z,18.10
2018-06-03T03:03:50.234Z,18.10
2018-06-03T03:06:19.247Z,18.10
2018-06-03T03:08:48.111Z,18.10
2018-06-03T03:11:16.967Z,18.10
2018-06-03T03:16:14.397Z,18.00
2018-06-03T03:18:43.234Z,18.00
2018-06-03T03:21:11.874Z,18.00
2018-06-03T03:23:40.839Z,18.00
2018-06-03T03:26:09.553Z,17.90
2018-06-03T03:28:38.318Z,18.00
2018-06-03T03:31:07.724Z,18.00
2018-06-03T03:33:36.946Z,18.00
2018-06-03T03:36:05.841Z,17.90
2018-06-03T03:38:34.870Z,18.00
2018-06-03T03:41:03.554Z,18.00
2018-06-03T03:43:32.217Z,18.00
2018-06-03T03:46:00.892Z,18.00
2018-06-03T03:48:29.814Z,18.10
2018-06-03T03:50:58.787Z,18.10
2018-06-03T03:53:27.423Z,18.10
2018-06-03T03:55:56.176Z,18.00
2018-06-03T03:58:25.079Z,18.10
2018-06-03T04:00:53.815Z,18.10
2018-06-03T04:03:22.587Z,18.10
2018-06-03T04:05:51.203Z,18.00
2018-06-03T04:08:20.068Z,18.10
2018-06-03T04:10:48.884Z,18.10
2018-06-03T04:13:17.774Z,18.10
2018-06-03T04:15:46.430Z,18.10
2018-06-03T04:18:15.519Z,18.10
2018-06-03T04:20:44.560Z,18.10
2018-06-03T04:23:13.140Z,18.10
2018-06-03T04:25:42.048Z,18.20
2018-06-03T04:28:10.947Z,18.20
2018-06-03T04:30:40.043Z,18.10
2018-06-03T04:33:09.060Z,18.20
2018-06-03T04:35:37.949Z,18.30
2018-06-03T04:38:06.695Z,18.40
2018-06-03T04:40:35.689Z,18.50
2018-06-03T04:43:04.729Z,18.60
2018-06-03T04:45:33.349Z,18.70
2018-06-03T04:48:02.262Z,18.80
2018-06-03T04:50:31.001Z,18.90
2018-06-03T04:52:59.698Z,19.00
2018-06-03T04:55:28.592Z,19.00
2018-06-03T04:57:57.352Z,19.10
2018-06-03T05:00:26.627Z,19.20
2018-06-03T05:02:55.301Z,19.20
2018-06-03T05:05:24.121Z,19.20
2018-06-03T05:07:52.809Z,19.20
2018-06-03T05:10:21.524Z,19.30
2018-06-03T05:12:50.283Z,19.30
2018-06-03T05:15:19.274Z,19.30
2018-06-03T05:17:47.816Z,19.30
2018-06-03T05:20:16.394Z,19.30
2018-06-03T05:22:45.121Z,19.40
2018-06-03T05:25:13.909Z,19.30
2018-06-03T05:27:42.623Z,19.30
2018-06-03T05:30:11.484Z,19.30
2018-06-03T05:32:40.312Z,19.30
2018-06-03T05:35:08.963Z,19.30
2018-06-03T05:37:37.730Z,19.30
2018-06-03T05:40:06.674Z,19.30
2018-06-03T05:42:35.605Z,19.20
2018-06-03T05:45:04.498Z,19.10
2018-06-03T05:47:33.123Z,19.10
2018-06-03T05:50:01.868Z,19.00
2018-06-03T05:52:30.761Z,18.90
2018-06-03T05:54:59.667Z,18.90
2018-06-03T05:57:28.424Z,19.00
2018-06-03T05:59:57.098Z,19.00
2018-06-03T06:02:25.748Z,18.90
2018-06-03T06:04:54.295Z,18.90
2018-06-03T06:07:23.683Z,18.90
2018-06-03T06:09:52.418Z,18.90
2018-06-03T06:12:21.220Z,18.90
2018-06-03T06:14:50.560Z,18.90
2018-06-03T06:17:19.716Z,18.90
2018-06-03T06:19:48.540Z,18.90
2018-06-03T06:22:18.185Z,19.00
2018-06-03T06:24:46.900Z,19.10
2018-06-03T06:27:15.712Z,19.10
2018-06-03T06:29:44.494Z,19.20
2018-06-03T06:32:13.699Z,19.20
2018-06-03T06:34:42.368Z,19.20
2018-06-03T06:37:11.131Z,19.20
2018-06-03T06:39:40.416Z,19.30
2018-06-03T06:42:09.000Z,19.40
2018-06-03T06:44:37.895Z,19.50
2018-06-03T06:47:06.574Z,19.40
2018-06-03T06:49:35.461Z,19.50
2018-06-03T06:52:04.191Z,19.60
2018-06-03T06:54:32.752Z,19.60
2018-06-03T06:57:01.520Z,19.60
2018-06-03T06:59:30.389Z,19.60
2018-06-03T07:01:58.944Z,19.80
2018-06-03T07:04:27.561Z,19.80
2018-06-03T07:06:56.113Z,19.80
2018-06-03T07:09:25.697Z,19.70
2018-06-03T07:11:54.918Z,19.70
2018-06-03T07:14:23.489Z,19.80
2018-06-03T07:16:52.356Z,20.00
2018-06-03T07:19:20.992Z,20.10
2018-06-03T07:21:50.003Z,20.10
2018-06-03T07:24:18.911Z,20.20
2018-06-03T07:26:47.601Z,20.30
2018-06-03T07:29:16.337Z,20.50
2018-06-03T07:31:45.023Z,20.60
2018-06-03T07:34:13.798Z,20.60
2018-06-03T07:36:42.547Z,20.60
2018-06-03T07:39:11.772Z,20.70
2018-06-03T07:41:40.400Z,20.90
2018-06-03T07:44:09.059Z,20.90
2018-06-03T07:46:37.901Z,21.00
2018-06-03T07:49:06.758Z,20.90
2018-06-03T07:51:35.981Z,20.90
2018-06-03T07:54:04.519Z,21.00
2018-06-03T07:56:33.128Z,21.20
2018-06-03T07:59:02.112Z,21.40
2018-06-03T08:01:30.784Z,21.60
2018-06-03T08:04:00.255Z,21.80
2018-06-03T08:06:28.963Z,21.90
2018-06-03T08:08:57.475Z,22.00
2018-06-03T08:11:26.391Z,22.20
2018-06-03T08:13:55.012Z,22.00
2018-06-03T08:16:23.561Z,22.20
2018-06-03T08:18:52.470Z,22.30
2018-06-03T08:21:21.200Z,22.40
2018-06-03T08:23:50.110Z,22.40
2018-06-03T08:26:18.652Z,22.40
2018-06-03T08:28:47.404Z,22.40
2018-06-03T08:31:16.017Z,22.40
2018-06-03T08:33:45.607Z,22.30
2018-06-03T08:36:14.176Z,22.20
2018-06-03T08:38:43.048Z,22.10
2018-06-03T08:41:12.207Z,22.10
2018-06-03T08:43:40.810Z,22.00
2018-06-03T08:46:09.422Z,22.00
2018-06-03T08:48:38.004Z,21.80
2018-06-03T08:51:06.891Z,21.80
2018-06-03T08:53:35.539Z,21.70
2018-06-03T08:58:33.043Z,21.70
2018-06-03T09:01:01.899Z,21.50
2018-06-03T09:03:30.454Z,21.40
2018-06-03T09:05:59.206Z,21.50
2018-06-03T09:08:28.065Z,21.50
2018-06-03T09:10:56.910Z,21.40
2018-06-03T09:13:25.786Z,21.60
2018-06-03T09:15:54.394Z,21.60
2018-06-03T09:18:23.114Z,21.70
2018-06-03T09:20:51.744Z,21.80
2018-06-03T09:23:20.719Z,22.10
2018-06-03T09:25:49.513Z,22.40
2018-06-03T09:28:18.267Z,22.50
2018-06-03T09:33:15.585Z,22.60
2018-06-03T09:35:44.263Z,22.70
2018-06-03T09:38:12.898Z,22.80
2018-06-03T09:40:41.468Z,23.10
2018-06-03T09:43:10.149Z,23.20
2018-06-03T09:45:39.851Z,23.30
2018-06-03T09:48:08.801Z,23.30
2018-06-03T09:50:37.341Z,23.10
2018-06-03T09:53:06.215Z,23.00
2018-06-03T09:55:35.066Z,23.00
2018-06-03T09:58:03.940Z,23.20
2018-06-03T10:00:33.755Z,23.30
2018-06-03T10:03:02.823Z,23.50
2018-06-03T10:05:31.868Z,23.40
2018-06-03T10:08:00.648Z,23.60
2018-06-03T10:10:29.252Z,23.90
2018-06-03T10:12:57.851Z,24.30
2018-06-03T10:15:26.677Z,24.70
2018-06-03T10:17:55.691Z,24.80
2018-06-03T10:20:24.450Z,24.90
2018-06-03T10:22:53.188Z,25.20
2018-06-03T10:25:21.822Z,25.30
2018-06-03T10:27:50.640Z,25.40
2018-06-03T10:30:19.204Z,25.60
2018-06-03T10:32:47.860Z,25.50
2018-06-03T10:35:16.804Z,25.90
2018-06-03T10:37:45.748Z,25.90
2018-06-03T10:40:14.435Z,26.10
2018-06-03T10:45:11.486Z,25.70
2018-06-03T10:47:40.037Z,25.50
2018-06-03T10:50:08.827Z,25.50
2018-06-03T10:52:37.907Z,25.60
2018-06-03T10:55:06.571Z,25.80
2018-06-03T10:57:35.314Z,25.90
2018-06-03T11:00:04.701Z,26.00
2018-06-03T11:02:33.396Z,26.30
2018-06-03T11:05:02.019Z,26.60
2018-06-03T11:07:30.737Z,26.90
2018-06-03T11:10:00.489Z,26.90
2018-06-03T11:12:29.109Z,27.00
2018-06-03T11:14:58.187Z,27.40
2018-06-03T11:17:26.974Z,27.50
2018-06-03T11:19:56.368Z,27.80
2018-06-03T11:22:25.240Z,27.60
2018-06-03T11:24:53.924Z,27.60
2018-06-03T11:27:22.501Z,27.70
2018-06-03T11:29:51.079Z,27.50
2018-06-03T11:32:19.717Z,27.00
2018-06-03T11:34:49.145Z,26.80
2018-06-03T11:37:17.753Z,26.70
2018-06-03T11:39:46.429Z,26.80
2018-06-03T11:42:15.016Z,27.00
2018-06-03T11:44:43.871Z,26.60
2018-06-03T11:47:13.196Z,26.80
2018-06-03T11:49:42.216Z,27.00
2018-06-03T11:52:11.945Z,27.00
2018-06-03T11:54:40.742Z,27.20
2018-06-03T11:57:09.461Z,27.20
2018-06-03T11:59:43.107Z,27.40
2018-06-03T12:02:13.174Z,27.40
2018-06-03T12:04:42.285Z,27.70
2018-06-03T12:07:12.179Z,27.70
2018-06-03T12:09:42.919Z,27.80
2018-06-03T12:12:12.552Z,27.80
2018-06-03T12:14:41.318Z,28.00
2018-06-03T12:17:09.942Z,28.10
2018-06-03T12:19:39.855Z,28.30
2018-06-03T12:22:08.438Z,28.50
2018-06-03T12:24:37.554Z,28.30
2018-06-03T12:27:06.171Z,28.30
2018-06-03T12:29:34.966Z,28.40
2018-06-03T12:32:03.722Z,28.70
2018-06-03T12:34:32.624Z,29.00
2018-06-03T12:37:01.242Z,28.80
2018-06-03T12:39:29.847Z,28.60
2018-06-03T12:41:58.980Z,28.10
2018-06-03T12:44:27.638Z,28.00
2018-06-03T12:46:56.483Z,28.10
2018-06-03T12:49:25.272Z,28.10
2018-06-03T12:51:54.472Z,28.10
2018-06-03T12:54:23.362Z,28.00
2018-06-03T12:56:51.863Z,28.10
2018-06-03T12:59:20.595Z,28.00
2018-06-03T13:01:49.391Z,28.10
2018-06-03T13:04:18.000Z,28.20
2018-06-03T13:06:46.792Z,28.50
2018-06-03T13:09:15.479Z,28.60
2018-06-03T13:11:43.990Z,28.80
2018-06-03T13:14:12.595Z,28.70
2018-06-03T13:16:41.695Z,28.90
2018-06-03T13:19:10.285Z,28.70
2018-06-03T13:21:38.862Z,28.90
2018-06-03T13:24:07.649Z,28.60
2018-06-03T13:26:36.186Z,28.70
2018-06-03T13:29:05.076Z,28.90
2018-06-03T13:31:33.598Z,28.90
2018-06-03T13:34:02.282Z,28.50
2018-06-03T13:36:30.858Z,28.70
2018-06-03T13:41:27.638Z,28.50
2018-06-03T13:46:24.432Z,28.70
2018-06-03T13:48:53.064Z,28.60
2018-06-03T13:51:21.776Z,28.60
2018-06-03T13:53:50.242Z,28.70
2018-06-03T13:56:18.734Z,28.70
2018-06-03T13:58:47.219Z,28.90
2018-06-03T14:01:15.653Z,28.90
2018-06-03T14:03:44.114Z,28.70
2018-06-03T14:06:12.579Z,28.70
2018-06-03T14:11:09.725Z,28.70
2018-06-03T14:13:38.247Z,28.50
2018-06-03T14:16:06.702Z,28.20
2018-06-03T14:18:35.196Z,28.10
2018-06-03T14:21:03.685Z,28.00
2018-06-03T14:23:32.158Z,28.10
2018-06-03T14:28:28.917Z,27.90
2018-06-03T14:30:57.434Z,28.10
2018-06-03T14:33:25.912Z,28.10
2018-06-03T14:35:54.373Z,28.20
2018-06-03T14:38:22.861Z,28.20
2018-06-03T14:40:51.386Z,28.10
2018-06-03T14:43:19.986Z,28.10
2018-06-03T14:45:48.464Z,28.10
2018-06-03T14:48:17.014Z,28.00
2018-06-03T14:50:45.561Z,28.10
2018-06-03T14:53:14.033Z,27.90
2018-06-03T14:55:42.620Z,27.90
2018-06-03T14:58:11.101Z,28.10
2018-06-03T15:00:39.564Z,28.10
2018-06-03T15:03:08.069Z,28.10
2018-06-03T15:05:36.565Z,28.10
2018-06-03T15:08:05.289Z,28.20
2018-06-03T15:10:33.721Z,28.20
2018-06-03T15:13:02.201Z,28.20
2018-06-03T15:15:30.719Z,28.20
2018-06-03T15:17:59.259Z,28.10
2018-06-03T15:20:27.800Z,28.10
2018-06-03T15:22:56.468Z,28.00
2018-06-03T15:25:25.090Z,28.00
2018-06-03T15:27:53.754Z,28.00
2018-06-03T15:30:22.395Z,28.00
2018-06-03T15:32:51.041Z,27.90
2018-06-03T15:35:19.638Z,27.90
2018-06-03T15:37:48.316Z,27.90
2018-06-03T15:40:16.823Z,28.00
2018-06-03T15:42:45.475Z,28.00
2018-06-03T15:45:14.097Z,27.90
2018-06-03T15:47:42.695Z,27.90
2018-06-03T15:50:11.292Z,27.90
2018-06-03T15:52:39.877Z,27.70
2018-06-03T15:55:08.612Z,27.50
2018-06-03T15:57:37.189Z,27.40
2018-06-03T16:00:06.218Z,27.40
2018-06-03T16:02:34.859Z,27.30
2018-06-03T16:05:03.549Z,27.30
2018-06-03T16:07:32.632Z,27.20
2018-06-03T16:10:01.366Z,27.20
2018-06-03T16:12:30.027Z,27.10
2018-06-03T16:14:58.847Z,27.10
2018-06-03T16:17:27.446Z,27.20
2018-06-03T16:19:56.020Z,27.20
2018-06-03T16:22:24.643Z,27.10
2018-06-03T16:24:53.239Z,27.00
2018-06-03T16:27:21.861Z,26.70
2018-06-03T16:29:50.499Z,26.70
2018-06-03T16:32:19.138Z,26.70
2018-06-03T16:34:48.039Z,26.60
2018-06-03T16:37:16.639Z,26.50
2018-06-03T16:39:45.244Z,26.40
2018-06-03T16:42:13.959Z,26.20
2018-06-03T16:44:42.544Z,26.00
2018-06-03T16:47:11.114Z,26.10
2018-06-03T16:49:39.767Z,26.10
2018-06-03T16:52:08.591Z,26.10
2018-06-03T16:54:37.199Z,26.00
2018-06-03T16:57:05.700Z,25.90
2018-06-03T16:59:34.275Z,25.90
2018-06-03T17:02:02.896Z,25.70
2018-06-03T17:04:31.514Z,25.70
2018-06-03T17:07:00.079Z,25.70
2018-06-03T17:09:28.578Z,25.60
2018-06-03T17:11:57.077Z,25.50
2018-06-03T17:14:25.648Z,25.40
2018-06-03T17:16:54.144Z,25.30
2018-06-03T17:19:22.686Z,25.30
2018-06-03T17:21:51.245Z,25.10
2018-06-03T17:24:19.795Z,25.10
2018-06-03T17:26:48.275Z,25.10
2018-06-03T17:31:45.085Z,25.00
2018-06-03T17:34:13.992Z,24.90
2018-06-03T17:36:42.488Z,24.80
2018-06-03T17:39:11.101Z,24.70
2018-06-03T17:41:39.625Z,24.70
2018-06-03T17:44:08.198Z,24.60
2018-06-03T17:46:36.787Z,24.60
2018-06-03T17:51:33.674Z,24.50
2018-06-03T17:54:02.254Z,24.50
2018-06-03T17:56:30.822Z,24.40
2018-06-03T17:58:59.505Z,24.30
2018-06-03T18:01:28.088Z,24.30
2018-06-03T18:03:56.607Z,24.30
2018-06-03T18:06:25.145Z,24.20
2018-06-03T18:08:53.719Z,24.10
2018-06-03T18:11:22.409Z,24.00
2018-06-03T18:13:50.989Z,23.90
2018-06-03T18:16:19.544Z,23.90
2018-06-03T18:18:48.128Z,23.80
2018-06-03T18:21:16.634Z,23.70
2018-06-03T18:23:45.247Z,23.60
2018-06-03T18:26:13.787Z,23.50
2018-06-03T18:28:42.299Z,23.50
2018-06-03T18:31:10.818Z,23.50
2018-06-03T18:33:39.394Z,23.40
2018-06-03T18:36:08.101Z,23.30
2018-06-03T18:38:36.671Z,23.30
2018-06-03T18:41:05.251Z,23.30
2018-06-03T18:43:33.867Z,23.20
2018-06-03T18:46:02.417Z,23.20
2018-06-03T18:48:30.941Z,23.10
2018-06-03T18:50:59.533Z,23.10
2018-06-03T18:53:28.053Z,23.10
2018-06-03T18:55:56.648Z,23.10
2018-06-03T18:58:25.284Z,23.00
2018-06-03T19:00:53.921Z,22.90
2018-06-03T19:03:22.602Z,22.90
2018-06-03T19:05:51.225Z,22.80
2018-06-03T19:08:19.833Z,22.80
2018-06-03T19:10:48.484Z,22.80
2018-06-03T19:13:17.250Z,22.80
2018-06-03T19:15:45.843Z,22.70
2018-06-03T19:18:14.526Z,22.70
2018-06-03T19:20:43.242Z,22.70
2018-06-03T19:23:11.880Z,22.60
2018-06-03T19:25:40.410Z,22.60
2018-06-03T19:28:08.991Z,22.50
2018-06-03T19:30:37.515Z,22.40
2018-06-03T19:33:06.229Z,22.40
2018-06-03T19:35:34.731Z,22.30
2018-06-03T19:38:04.289Z,22.30
2018-06-03T19:43:01.281Z,22.00
2018-06-03T19:45:36.341Z,21.90
2018-06-03T19:48:05.271Z,21.90
2018-06-03T19:50:33.941Z,21.90
2018-06-03T19:53:02.866Z,21.80
2018-06-03T19:55:31.440Z,21.80
2018-06-03T19:57:59.995Z,21.70
2018-06-03T20:00:28.595Z,21.80
2018-06-03T20:05:25.390Z,21.60
2018-06-03T20:10:22.175Z,21.50
2018-06-03T20:12:50.834Z,21.40
2018-06-03T20:15:20.194Z,21.30
2018-06-03T20:17:53.334Z,21.30
2018-06-03T20:20:22.155Z,21.20
2018-06-03T20:22:50.719Z,21.20
2018-06-03T20:25:19.947Z,21.20
2018-06-03T20:27:49.389Z,21.10
2018-06-03T20:30:17.985Z,20.90
2018-06-03T20:32:46.580Z,20.70
2018-06-03T20:35:15.174Z,20.60
2018-06-03T20:37:43.745Z,20.60
2018-06-03T20:40:12.385Z,20.60
2018-06-03T20:42:40.906Z,20.60
2018-06-03T20:45:09.477Z,20.40
2018-06-03T20:47:37.997Z,20.40
2018-06-03T20:50:06.554Z,20.40
2018-06-03T20:52:35.094Z,20.40
2018-06-03T20:55:03.790Z,20.40
2018-06-03T20:57:32.472Z,20.40
2018-06-03T21:00:01.031Z,20.40
2018-06-03T21:02:29.753Z,20.30
2018-06-03T21:04:58.297Z,20.30
2018-06-03T21:07:26.846Z,20.30
2018-06-03T21:12:23.539Z,20.30
2018-06-03T21:14:52.033Z,20.20
2018-06-03T21:17:20.610Z,20.20
2018-06-03T21:19:49.117Z,20.10
2018-06-03T21:22:17.647Z,20.10
2018-06-03T21:24:46.131Z,20.10
2018-06-03T21:27:14.720Z,20.10
2018-06-03T21:29:43.221Z,20.00
2018-06-03T21:32:11.706Z,20.00
2018-06-03T21:34:40.266Z,19.90
2018-06-03T21:39:37.175Z,19.80
2018-06-03T21:42:05.822Z,19.80
2018-06-03T21:44:34.306Z,19.80
2018-06-03T21:47:02.809Z,19.70
2018-06-03T21:49:31.544Z,19.70
2018-06-03T21:52:00.148Z,19.60
2018-06-03T21:54:28.745Z,19.60
2018-06-03T21:56:57.224Z,19.60
2018-06-03T21:59:25.836Z,19.50
2018-06-03T22:01:54.451Z,19.50
2018-06-03T22:04:23.079Z,19.40
2018-06-03T22:06:51.605Z,19.40
2018-06-03T22:09:20.139Z,19.40
2018-06-03T22:11:48.676Z,19.40
2018-06-03T22:14:17.227Z,19.30
2018-06-03T22:16:45.703Z,19.20
2018-06-03T22:19:14.313Z,19.20
2018-06-03T22:21:42.863Z,19.10
2018-06-03T22:24:11.478Z,19.10
2018-06-03T22:26:39.975Z,19.00
2018-06-03T22:29:08.571Z,19.10
2018-06-03T22:34:05.462Z,19.00
2018-06-03T22:36:34.016Z,19.00
2018-06-03T22:39:02.631Z,19.00
2018-06-03T22:41:31.179Z,18.90
2018-06-03T22:43:59.778Z,18.90
2018-06-03T22:46:28.255Z,18.80
2018-06-03T22:48:56.971Z,18.80
2018-06-03T22:51:25.570Z,18.80
2018-06-03T22:53:54.147Z,18.70
2018-06-03T22:56:22.710Z,18.70
2018-06-03T22:58:51.475Z,18.70
2018-06-03T23:01:20.042Z,18.60
2018-06-03T23:03:48.539Z,18.60
2018-06-03T23:06:17.952Z,18.50
2018-06-03T23:08:46.481Z,18.50
2018-06-03T23:11:14.979Z,18.50
2018-06-03T23:13:43.641Z,18.40
2018-06-03T23:16:12.147Z,18.40
2018-06-03T23:18:40.687Z,18.40
2018-06-03T23:21:09.301Z,18.30
2018-06-03T23:23:37.815Z,18.20
2018-06-03T23:26:06.377Z,18.20
2018-06-03T23:28:34.878Z,18.10
2018-06-03T23:31:03.487Z,18.10
2018-06-03T23:33:31.994Z,18.00
2018-06-03T23:36:00.506Z,18.00
2018-06-03T23:38:29.141Z,18.00
2018-06-03T23:40:57.646Z,17.90
2018-06-03T23:43:26.186Z,17.80
2018-06-03T23:45:54.772Z,17.80
2018-06-03T23:48:23.374Z,17.80
2018-06-03T23:50:51.898Z,17.80
2018-06-03T23:53:20.500Z,17.80
2018-06-03T23:55:49.051Z,17.80
2018-06-03T23:58:17.564Z,17.80
